createdAt,value
2022-11-25T00:03:49.360Z,3.42
2022-11-25T00:08:56.795Z,3.90
2022-11-25T00:13:59.375Z,3.75
2022-11-25T00:19:01.957Z,3.15
2022-11-25T00:24:08.228Z,3.05
2022-11-25T00:29:12.885Z,3.10
2022-11-25T00:34:16.076Z,3.05
2022-11-25T00:39:24.439Z,3.33
2022-11-25T00:44:40.695Z,3.00
2022-11-25T00:49:45.313Z,3.05
2022-11-25T00:54:51.158Z,1.98
2022-11-25T00:59:53.696Z,3.08
2022-11-25T01:04:56.397Z,2.95
2022-11-25T01:10:00.375Z,3.22
2022-11-25T01:15:03.007Z,3.20
2022-11-25T01:20:09.802Z,3.78
2022-11-25T01:25:13.722Z,3.65
2022-11-25T01:30:16.657Z,3.40
2022-11-25T01:35:19.236Z,3.65
2022-11-25T01:40:24.658Z,3.58
2022-11-25T01:45:35.461Z,3.72
2022-11-25T01:50:38.540Z,3.53
2022-11-25T01:55:45.911Z,3.17
2022-11-25T02:00:51.379Z,3.63
2022-11-25T02:06:03.813Z,3.55
2022-11-25T02:11:07.984Z,3.58
2022-11-25T02:16:10.875Z,2.83
2022-11-25T02:21:18.303Z,3.50
2022-11-25T02:26:22.444Z,3.75
2022-11-25T02:31:25.209Z,3.28
2022-11-25T02:36:27.946Z,4.57
2022-11-25T02:41:34.063Z,4.38
2022-11-25T02:46:36.658Z,4.18
2022-11-25T02:51:41.257Z,4.60
2022-11-25T03:01:48.116Z,4.20
2022-11-25T03:06:50.716Z,3.60
2022-11-25T03:12:12.237Z,4.20
2022-11-25T03:17:14.816Z,4.63
2022-11-25T03:22:17.365Z,4.00
2022-11-25T03:27:21.323Z,4.88
2022-11-25T03:32:23.919Z,3.42
2022-11-25T03:37:26.510Z,4.10
2022-11-25T03:42:30.640Z,4.25
2022-11-25T03:47:34.082Z,2.78
2022-11-25T03:52:36.721Z,3.78
2022-11-25T03:57:41.294Z,4.07
2022-11-25T04:07:46.604Z,4.13
2022-11-25T04:12:52.466Z,4.25
2022-11-25T04:17:55.051Z,4.00
2022-11-25T04:22:57.606Z,3.80
2022-11-25T04:28:01.547Z,3.72
2022-11-25T04:33:04.193Z,2.95
2022-11-25T04:38:06.754Z,4.07
2022-11-25T04:43:10.906Z,4.07
2022-11-25T04:48:13.556Z,2.63
2022-11-25T04:53:16.441Z,3.30
2022-11-25T04:58:40.394Z,3.78
2022-11-25T05:03:48.792Z,3.13
2022-11-25T05:08:53.464Z,3.97
2022-11-25T05:13:57.388Z,4.78
2022-11-25T05:18:59.937Z,3.22
2022-11-25T05:24:02.543Z,4.40
2022-11-25T05:29:06.576Z,4.60
2022-11-25T05:34:09.321Z,3.72
2022-11-25T05:39:11.878Z,4.10
2022-11-25T05:44:21.223Z,4.60
2022-11-25T05:49:26.042Z,4.20
2022-11-25T05:54:28.625Z,4.75
2022-11-25T05:59:32.535Z,5.25
2022-11-25T06:04:35.372Z,3.70
2022-11-25T06:09:38.381Z,4.90
2022-11-25T06:14:42.288Z,4.93
2022-11-25T06:19:47.942Z,3.65
2022-11-25T06:24:58.925Z,4.38
2022-11-25T06:30:15.358Z,4.72
2022-11-25T06:35:18.386Z,4.10
2022-11-25T06:40:21.292Z,5.28
2022-11-25T06:45:25.282Z,4.43
2022-11-25T06:50:27.928Z,4.25
2022-11-25T06:55:30.511Z,4.57
2022-11-25T07:00:34.561Z,4.95
2022-11-25T07:05:37.453Z,3.83
2022-11-25T07:10:40.078Z,4.60
2022-11-25T07:15:44.068Z,5.10
2022-11-25T07:20:46.808Z,3.38
2022-11-25T07:25:49.690Z,4.32
2022-11-25T07:36:16.343Z,3.60
2022-11-25T07:41:20.661Z,5.78
2022-11-25T07:51:33.213Z,4.80
2022-11-25T07:56:37.497Z,5.72
2022-11-25T08:01:42.334Z,3.75
2022-11-25T08:06:46.800Z,5.30
2022-11-25T08:11:52.175Z,5.78
2022-11-25T08:16:56.101Z,5.63
2022-11-25T08:21:58.877Z,5.85
2022-11-25T08:27:01.944Z,4.50
2022-11-25T08:32:11.845Z,5.18
2022-11-25T08:37:14.763Z,4.15
2022-11-25T08:42:17.489Z,4.05
2022-11-25T08:47:21.675Z,3.72
2022-11-25T08:52:24.787Z,2.30
2022-11-25T08:57:27.610Z,3.33
2022-11-25T09:02:31.714Z,3.45
2022-11-25T09:07:34.425Z,2.95
2022-11-25T09:12:37.473Z,3.67
2022-11-25T09:17:41.422Z,2.97
2022-11-25T09:22:45.213Z,2.80
2022-11-25T09:27:47.886Z,2.43
2022-11-25T09:32:53.863Z,3.42
2022-11-25T09:37:56.494Z,5.45
2022-11-25T09:43:25.548Z,4.55
2022-11-25T09:48:52.589Z,4.90
2022-11-25T09:53:57.900Z,4.05
2022-11-25T09:59:06.422Z,2.45
2022-11-25T10:04:14.389Z,2.38
2022-11-25T10:09:23.419Z,2.25
2022-11-25T10:14:31.944Z,4.50
2022-11-25T10:19:44.739Z,2.55
2022-11-25T10:24:47.727Z,1.60
2022-11-25T10:30:00.161Z,1.83
2022-11-25T10:35:09.039Z,2.05
2022-11-25T10:40:15.952Z,1.88
2022-11-25T10:45:21.736Z,2.00
2022-11-25T10:50:32.404Z,2.00
2022-11-25T10:55:35.102Z,1.77
2022-11-25T11:00:39.239Z,2.03
2022-11-25T11:05:48.929Z,1.38
2022-11-25T11:11:11.376Z,1.35
2022-11-25T11:16:28.739Z,1.67
2022-11-25T11:21:35.530Z,1.40
2022-11-25T11:26:38.371Z,1.92
2022-11-25T11:31:45.468Z,1.58
2022-11-25T11:37:05.784Z,2.33
2022-11-25T11:42:15.150Z,2.17
2022-11-25T11:47:27.287Z,2.55
2022-11-25T11:52:41.844Z,1.88
2022-11-25T12:03:00.684Z,1.35
2022-11-25T12:08:11.080Z,2.05
2022-11-25T12:13:20.911Z,1.40
2022-11-25T12:18:46.062Z,1.73
2022-11-25T12:23:59.508Z,1.83
2022-11-25T12:29:06.762Z,1.90
2022-11-25T12:34:16.270Z,1.50
2022-11-25T12:39:27.241Z,1.90
2022-11-25T12:44:34.665Z,1.65
2022-11-25T12:49:43.672Z,1.42
2022-11-25T12:55:06.747Z,1.90
2022-11-25T13:00:40.384Z,1.45
2022-11-25T13:05:59.620Z,1.50
2022-11-25T13:11:25.779Z,1.92
2022-11-25T13:16:30.044Z,1.60
2022-11-25T13:21:33.195Z,1.30
2022-11-25T13:26:54.118Z,1.80
2022-11-25T13:31:59.479Z,2.10
2022-11-25T13:37:04.302Z,1.95
2022-11-25T13:47:32.113Z,1.80
2022-11-25T13:52:41.642Z,2.00
2022-11-25T17:31:47.244Z,4.30
2022-11-25T17:36:52.059Z,5.07
2022-11-25T17:41:54.607Z,4.35
2022-11-25T17:46:59.729Z,5.07
2022-11-25T17:52:02.378Z,5.00
2022-11-25T17:57:06.199Z,5.05
2022-11-25T18:02:18.404Z,3.13
2022-11-25T18:07:21.091Z,4.28
2022-11-25T18:12:31.886Z,4.20
2022-11-25T18:17:37.205Z,4.80
2022-11-25T18:22:39.726Z,4.90
2022-11-25T18:27:42.809Z,4.32
2022-11-25T18:32:47.206Z,4.60
2022-11-25T18:37:49.985Z,4.57
2022-11-25T18:42:57.879Z,4.57
2022-11-25T18:48:02.031Z,4.70
2022-11-25T18:53:04.593Z,4.05
2022-11-25T18:58:16.357Z,4.90
2022-11-25T19:03:22.766Z,5.30
2022-11-25T19:08:25.360Z,5.25
2022-11-25T19:13:33.933Z,5.38
2022-11-25T19:18:38.036Z,5.25
2022-11-25T19:23:41.538Z,5.15
2022-11-25T19:28:49.516Z,5.25
2022-11-25T19:33:55.455Z,5.70
2022-11-25T19:38:58.902Z,5.65
2022-11-25T19:44:01.536Z,5.40
2022-11-25T19:49:06.528Z,5.63
2022-11-25T19:54:13.110Z,5.10
2022-11-25T19:59:15.823Z,5.57
2022-11-25T20:04:21.796Z,5.57
2022-11-25T20:09:24.336Z,5.90
2022-11-25T20:14:34.536Z,6.10
2022-11-25T20:19:39.084Z,6.38
2022-11-25T20:24:41.713Z,4.88
2022-11-25T20:29:44.393Z,6.90
2022-11-25T20:34:48.529Z,6.38
2022-11-25T20:39:53.390Z,6.47
2022-11-25T20:44:57.828Z,6.25
2022-11-25T20:50:01.922Z,6.30
2022-11-25T20:55:15.744Z,4.70
2022-11-25T21:00:20.937Z,7.57
2022-11-25T21:05:25.034Z,6.75
2022-11-25T21:10:30.049Z,5.63
2022-11-25T21:15:32.775Z,7.32
2022-11-25T21:20:37.187Z,8.57
2022-11-25T21:25:39.819Z,5.43
2022-11-25T21:30:42.458Z,7.70
2022-11-25T21:35:49.024Z,7.80
2022-11-25T21:40:53.943Z,8.40
2022-11-25T21:46:01.985Z,8.95
2022-11-25T21:51:06.301Z,8.35
2022-11-25T21:56:18.305Z,6.78
2022-11-25T22:01:24.819Z,9.02
2022-11-25T22:06:33.500Z,8.48
2022-11-25T22:11:38.883Z,9.00
2022-11-25T22:16:41.768Z,9.70
2022-11-25T22:21:45.811Z,9.18
2022-11-25T22:26:56.005Z,9.13
2022-11-25T22:32:00.345Z,9.45
2022-11-25T22:37:04.345Z,9.68
2022-11-25T22:42:07.915Z,9.02
2022-11-25T22:47:18.023Z,7.70
2022-11-25T22:52:24.899Z,10.50
2022-11-25T22:57:27.440Z,9.98
2022-11-25T23:02:34.875Z,10.02
2022-11-25T23:07:38.830Z,10.27
2022-11-25T23:12:41.485Z,10.10
2022-11-25T23:17:49.320Z,10.15
2022-11-25T23:22:53.327Z,10.52
2022-11-25T23:27:57.057Z,9.15
2022-11-25T23:32:59.810Z,9.73
2022-11-25T23:38:04.403Z,9.95
2022-11-25T23:48:12.354Z,10.55
2022-11-25T23:53:23.236Z,11.27
2022-11-25T23:58:25.819Z,10.48
